Osgood, Indiana
Current Conditions -  °F | °C
As of 9:35 AM on Friday 28 Nov 2014 (Local Time) from KI67 Reporting Station
Scattered Clouds Scattered Clouds  
Wind Chill: 23°   Ceiling: Unl
Heat Index: 30°   Visibility: 10mi
Dew Point: 19°   Wind: 7mph
Humidity: 64%   Direction: 190°S
Pressure: 30.38"   Gusts: NA
Location:  39.13°N, 85.29°W
Report Text: KI67 281435Z AUTO 19006KT 10SM SCT095 M01/M07 A3038 RMK AO1
Loading
Personal Weather Stations






























Interactive Weather Map New forecast layout! Learn more

10-Day Weather Forecast

Advertisements
Track Severe Weather on mobile